Time;durP1;ratioP1;P1;durP2;ratioP2;P2;SDS_P1;SDS_P2;PMS_P1;PMS_P2;Temp;Humidity;BMP_temperature;BMP_pressure;BME280_temperature;BME280_humidity;BME280_pressure;Samples;Min_cycle;Max_cycle;Signal;HPM_P1;HPM_P2
2022/08/17 00:01:01;;;;;;;13.30;5.62;;;;;;;20.73;67.68;99973.11;1738245;81;22452;-47
2022/08/17 00:03:39;;;;;;;9.83;6.20;;;;;;;20.72;67.58;99965.28;1735235;81;21013;-47
2022/08/17 00:06:14;;;;;;;14.35;6.75;;;;;;;20.66;67.76;99962.91;1742461;82;21098;-46
2022/08/17 00:08:44;;;;;;;9.28;5.80;;;;;;;20.62;67.86;99958.94;1732884;80;21542;-47
2022/08/17 00:11:28;;;;;;;9.73;5.87;;;;;;;20.58;67.90;99958.52;1739352;81;21045;-47
2022/08/17 00:13:58;;;;;;;10.08;5.55;;;;;;;20.57;67.93;99951.50;1737193;80;21070;-47
2022/08/17 00:16:30;;;;;;;10.98;5.95;;;;;;;20.64;67.77;99952.09;1736920;81;21074;-47
2022/08/17 00:19:03;;;;;;;13.13;6.22;;;;;;;20.69;67.65;99950.98;1737312;80;21093;-47
2022/08/17 00:21:31;;;;;;;9.70;6.17;;;;;;;20.70;67.47;99955.31;1742476;80;21477;-47
2022/08/17 00:23:58;;;;;;;9.15;5.58;;;;;;;20.69;67.41;99961.67;1728795;81;21534;-47
2022/08/17 00:26:26;;;;;;;10.05;5.80;;;;;;;20.64;67.50;99956.09;1741105;82;21043;-47
2022/08/17 00:28:52;;;;;;;11.95;6.55;;;;;;;20.63;67.49;99955.77;1732944;81;21483;-47
2022/08/17 00:31:19;;;;;;;9.03;5.55;;;;;;;20.68;67.37;99954.17;1739841;80;21960;-47
2022/08/17 00:33:45;;;;;;;14.78;7.08;;;;;;;20.72;67.38;99958.60;1736964;81;21075;-48
2022/08/17 00:36:13;;;;;;;10.28;6.17;;;;;;;20.71;67.08;99963.13;1742900;82;21023;-47
2022/08/17 00:38:41;;;;;;;12.05;6.40;;;;;;;20.69;66.97;99973.70;1732598;81;21063;-47
2022/08/17 00:41:14;;;;;;;12.00;6.25;;;;;;;20.64;66.92;99972.14;1738827;80;21063;-47
2022/08/17 00:43:50;;;;;;;10.60;5.92;;;;;;;20.57;66.88;99969.40;1735955;81;21143;-48
2022/08/17 00:46:22;;;;;;;;;;;;;;;20.59;66.84;99973.54;1741720;82;21020;-47
2022/08/17 00:48:48;;;;;;;10.65;6.42;;;;;;;20.59;66.93;99966.86;1718721;81;20218;-48
2022/08/17 00:51:26;;;;;;;9.03;6.05;;;;;;;20.58;66.84;99962.52;1726505;80;21178;-48
2022/08/17 00:54:22;;;;;;;11.30;6.67;;;;;;;20.55;67.04;99962.91;1741959;81;21487;-48
2022/08/17 00:56:56;;;;;;;10.03;6.78;;;;;;;20.52;66.88;99957.96;1727997;82;22090;-45
2022/08/17 00:59:26;;;;;;;8.93;5.42;;;;;;;20.50;66.77;99957.86;1735825;81;21521;-48
2022/08/17 01:01:53;;;;;;;10.08;6.10;;;;;;;20.51;66.86;99955.00;1728352;80;21079;-47
2022/08/17 01:04:20;;;;;;;9.88;6.10;;;;;;;20.50;67.13;99950.66;1739967;81;21356;-47
2022/08/17 01:06:48;;;;;;;13.30;6.47;;;;;;;20.45;67.45;99956.30;1739721;82;21496;-47
2022/08/17 01:09:15;;;;;;;8.88;6.08;;;;;;;20.42;67.50;99957.50;1749537;80;21139;-47
2022/08/17 01:11:43;;;;;;;7.70;5.45;;;;;;;20.36;67.59;99960.98;1730583;80;21064;-47
2022/08/17 01:14:11;;;;;;;11.45;5.60;;;;;;;20.36;67.51;99959.65;1738314;81;21111;-47
2022/08/17 01:16:37;;;;;;;9.60;6.15;;;;;;;20.39;67.27;99956.06;1742555;82;21122;-48
2022/08/17 01:19:15;;;;;;;8.00;5.55;;;;;;;20.41;67.21;99965.22;1742693;80;21022;-47
2022/08/17 01:22:19;;;;;;;10.98;6.10;;;;;;;20.37;67.31;99961.28;1754895;81;21876;-48
2022/08/17 01:24:52;;;;;;;9.30;5.62;;;;;;;20.36;67.50;99955.64;1694065;83;21022;-47
2022/08/17 01:27:19;;;;;;;9.18;5.60;;;;;;;20.30;67.54;99959.91;1701085;84;21080;-47
2022/08/17 01:29:51;;;;;;;9.40;5.10;;;;;;;20.26;67.48;99964.00;1716091;82;21066;-47
2022/08/17 01:32:18;;;;;;;16.57;5.87;;;;;;;20.28;67.50;99954.46;1719723;83;21048;-47
2022/08/17 01:34:45;;;;;;;9.40;5.58;;;;;;;20.31;67.59;99955.37;1714137;82;21201;-47
2022/08/17 01:37:13;;;;;;;10.78;5.65;;;;;;;20.35;67.54;99957.98;1718824;82;21046;-48
2022/08/17 01:40:17;;;;;;;12.10;6.40;;;;;;;20.33;67.46;99951.50;1714793;82;21074;-47
2022/08/17 01:42:49;;;;;;;11.70;6.15;;;;;;;20.34;67.50;99949.64;1693503;84;21072;-47
2022/08/17 01:45:21;;;;;;;13.35;5.42;;;;;;;20.35;67.56;99946.78;1700264;84;21115;-47
2022/08/17 01:47:49;;;;;;;8.73;5.17;;;;;;;20.36;67.47;99951.11;1701229;84;22395;-47
2022/08/17 01:50:27;;;;;;;9.13;6.03;;;;;;;20.39;67.14;99948.54;1699429;84;23546;-47
2022/08/17 01:52:58;;;;;;;11.22;6.08;;;;;;;20.39;67.07;99950.72;1694946;84;21034;-48
2022/08/17 01:55:33;;;;;;;8.70;5.30;;;;;;;20.36;67.04;99948.96;1708044;83;21105;-47
2022/08/17 01:57:59;;;;;;;9.30;5.83;;;;;;;20.31;67.07;99941.53;1701269;82;21066;-47
2022/08/17 02:00:26;;;;;;;11.93;5.78;;;;;;;20.25;67.34;99937.48;1706418;83;21152;-47
2022/08/17 02:02:53;;;;;;;8.63;5.67;;;;;;;20.20;67.30;99932.20;1709267;83;21102;-48
2022/08/17 02:05:20;;;;;;;12.82;6.15;;;;;;;20.20;67.52;99930.88;1708045;83;21079;-47
2022/08/17 02:07:46;;;;;;;11.93;5.67;;;;;;;20.22;67.43;99929.34;1708262;82;21051;-47
2022/08/17 02:10:13;;;;;;;8.90;5.12;;;;;;;20.19;67.56;99933.25;1690167;83;21578;-47
2022/08/17 02:12:39;;;;;;;12.37;5.95;;;;;;;20.15;67.60;99934.64;1693414;83;21141;-50
2022/08/17 02:15:08;;;;;;;8.20;5.42;;;;;;;20.12;67.84;99932.87;1696256;82;21108;-47
2022/08/17 02:17:34;;;;;;;14.03;5.35;;;;;;;20.06;67.92;99939.84;1706536;83;21106;-48
2022/08/17 02:20:03;;;;;;;8.78;5.37;;;;;;;20.02;68.19;99931.89;1691907;83;21095;-48
2022/08/17 02:22:31;;;;;;;10.40;5.78;;;;;;;20.03;68.19;99936.22;1691872;83;21075;-47
2022/08/17 02:24:58;;;;;;;11.20;5.50;;;;;;;20.05;68.34;99934.17;1690275;84;21141;-48
2022/08/17 02:27:24;;;;;;;11.20;5.65;;;;;;;20.03;68.36;99929.55;1691318;84;21104;-48
2022/08/17 02:29:51;;;;;;;9.55;5.53;;;;;;;19.99;68.52;99933.13;1686530;84;21114;-47
2022/08/17 02:32:20;;;;;;;9.90;6.30;;;;;;;20.00;68.47;99931.27;1688786;83;21056;-47
2022/08/17 02:34:46;;;;;;;10.00;6.30;;;;;;;19.99;68.53;99925.11;1690668;84;21123;-47
2022/08/17 02:37:16;;;;;;;10.53;6.25;;;;;;;20.02;68.38;99922.05;1686006;83;21087;-47
2022/08/17 02:39:44;;;;;;;8.00;5.53;;;;;;;20.07;68.32;99921.44;1689098;84;21010;-48
2022/08/17 02:42:13;;;;;;;8.13;5.45;;;;;;;20.11;68.28;99920.56;1685864;84;21151;-47
2022/08/17 02:44:40;;;;;;;9.48;5.17;;;;;;;20.10;68.30;99922.91;1684765;84;21096;-47
2022/08/17 02:47:07;;;;;;;8.10;5.75;;;;;;;20.07;68.37;99917.95;1681796;83;21135;-48
2022/08/17 02:49:36;;;;;;;12.15;6.22;;;;;;;20.06;68.39;99921.67;1684756;84;21139;-47
2022/08/17 02:52:05;;;;;;;8.70;5.40;;;;;;;20.00;68.47;99926.74;1690691;84;21039;-48
2022/08/17 02:54:32;;;;;;;8.30;5.17;;;;;;;20.01;68.73;99933.75;1689214;83;21064;-47
2022/08/17 02:56:58;;;;;;;8.20;4.87;;;;;;;20.08;68.72;99931.64;1689835;83;21131;-47
2022/08/17 02:59:25;;;;;;;9.90;6.08;;;;;;;20.13;68.53;99927.86;1683175;84;21067;-47
2022/08/17 03:01:52;;;;;;;9.55;5.90;;;;;;;20.15;68.42;99928.48;1687153;84;21170;-47
2022/08/17 03:04:19;;;;;;;11.53;6.90;;;;;;;20.17;68.54;99929.11;1685575;83;21052;-48
2022/08/17 03:06:45;;;;;;;9.85;6.17;;;;;;;20.17;68.65;99925.95;1690342;84;21139;-47
2022/08/17 03:09:12;;;;;;;8.10;5.62;;;;;;;20.12;68.63;99925.68;1686684;84;21146;-47
2022/08/17 03:11:38;;;;;;;10.10;5.85;;;;;;;20.09;68.57;99926.59;1687432;84;21107;-48
2022/08/17 03:14:05;;;;;;;11.60;6.40;;;;;;;20.11;68.61;99924.05;1684613;84;21105;-47
2022/08/17 03:16:32;;;;;;;12.10;6.08;;;;;;;20.13;68.61;99922.00;1684444;83;21057;-47
2022/08/17 03:18:58;;;;;;;10.95;6.05;;;;;;;20.17;68.65;99925.10;1683687;84;21101;-47
2022/08/17 03:21:25;;;;;;;10.13;5.95;;;;;;;20.19;68.62;99931.91;1690401;84;21055;-47
2022/08/17 03:23:51;;;;;;;11.48;6.12;;;;;;;20.17;68.67;99925.10;1693373;84;21051;-47
2022/08/17 03:26:18;;;;;;;10.18;6.45;;;;;;;20.14;68.70;99922.33;1691329;84;21146;-49
2022/08/17 03:28:44;;;;;;;7.72;6.03;;;;;;;20.15;68.59;99915.13;1692955;83;21017;-47
2022/08/17 03:31:10;;;;;;;10.00;6.33;;;;;;;20.18;68.48;99919.56;1691912;84;21067;-47
2022/08/17 03:33:37;;;;;;;10.20;6.47;;;;;;;20.19;68.40;99922.56;1706722;83;21589;-47
2022/08/17 03:36:05;;;;;;;9.10;6.08;;;;;;;20.20;68.55;99918.03;1698117;82;21535;-48
2022/08/17 03:38:32;;;;;;;13.48;6.10;;;;;;;20.23;68.64;99913.64;1702564;83;21798;-48
2022/08/17 03:40:58;;;;;;;9.45;6.40;;;;;;;20.24;68.49;99919.30;1695248;83;22297;-49
2022/08/17 03:43:27;;;;;;;9.83;6.53;;;;;;;20.22;68.50;99925.33;1694688;84;21055;-47
2022/08/17 03:57:08;;;;;;;10.53;6.30;;;;;;;20.30;68.86;99917.16;1696149;84;21072;-47
2022/08/17 03:59:35;;;;;;;10.28;5.87;;;;;;;20.35;68.54;99924.59;1698126;83;21074;-47
2022/08/17 04:02:07;;;;;;;10.45;6.47;;;;;;;20.35;68.27;99924.59;1702311;84;21639;-48
2022/08/17 04:04:35;;;;;;;18.02;6.70;;;;;;;20.32;68.31;99928.98;1698160;83;21174;-47
2022/08/17 04:07:02;;;;;;;10.93;6.58;;;;;;;20.33;68.39;99931.98;1704188;83;21063;-47
2022/08/17 04:09:29;;;;;;;8.85;5.92;;;;;;;20.36;68.35;99931.59;1700218;82;21155;-48
2022/08/17 04:11:56;;;;;;;8.90;6.55;;;;;;;20.40;68.56;99932.83;1695811;83;21063;-47
2022/08/17 04:14:23;;;;;;;12.40;6.37;;;;;;;20.41;68.61;99929.15;1695971;84;21120;-48
2022/08/17 04:16:49;;;;;;;12.40;5.97;;;;;;;20.43;68.70;99938.31;1706594;83;21146;-47
2022/08/17 04:19:16;;;;;;;10.18;6.20;;;;;;;20.46;68.53;99938.73;1706157;82;21162;-47
2022/08/17 04:21:42;;;;;;;9.33;6.08;;;;;;;20.51;67.94;99939.45;1720081;82;21055;-47
2022/08/17 04:24:09;;;;;;;14.63;6.65;;;;;;;20.55;67.61;99928.69;1716569;82;21071;-48
2022/08/17 04:26:35;;;;;;;13.50;6.40;;;;;;;20.59;67.36;99930.77;1715904;83;21110;-47
2022/08/17 04:29:02;;;;;;;9.55;7.03;;;;;;;20.60;67.17;99925.72;1715583;83;21088;-47
2022/08/17 04:31:29;;;;;;;14.98;7.10;;;;;;;20.62;67.11;99924.19;1714897;82;21067;-48
2022/08/17 04:33:55;;;;;;;10.55;6.22;;;;;;;20.62;67.08;99926.86;1719859;83;21121;-48
2022/08/17 04:36:22;;;;;;;9.95;5.97;;;;;;;20.65;66.98;99921.67;1708049;82;21073;-47
2022/08/17 04:38:48;;;;;;;11.22;6.15;;;;;;;20.71;67.06;99925.70;1717890;82;21070;-48
2022/08/17 04:44:03;;;;;;;;;;;;;;;20.78;66.67;99919.05;1719201;83;21052;-48
2022/08/17 04:46:33;;;;;;;11.65;6.47;;;;;;;20.80;66.70;99908.16;1713960;82;20176;-48
2022/08/17 04:49:01;;;;;;;8.93;6.15;;;;;;;20.80;66.72;99898.27;1716747;83;21080;-48
2022/08/17 04:51:34;;;;;;;9.38;6.45;;;;;;;20.76;66.93;99888.98;1717157;82;21082;-48
2022/08/17 04:54:07;;;;;;;10.45;5.70;;;;;;;20.76;67.14;99899.69;1718989;82;22722;-48
2022/08/17 04:56:34;;;;;;;16.17;5.90;;;;;;;20.83;67.16;99900.55;1712967;82;21040;-48
2022/08/17 04:59:05;;;;;;;9.30;5.75;;;;;;;20.89;67.10;99897.56;1717297;83;21113;-48
2022/08/17 05:01:33;;;;;;;12.80;6.95;;;;;;;20.94;66.95;99901.80;1702768;82;21032;-47
2022/08/17 05:04:04;;;;;;;11.50;6.28;;;;;;;21.00;67.02;99896.13;1697665;83;21067;-48
2022/08/17 05:06:30;;;;;;;8.55;6.12;;;;;;;21.08;66.73;99904.81;1717540;82;21126;-47
2022/08/17 05:08:58;;;;;;;9.63;6.15;;;;;;;21.11;66.48;99902.23;1719340;83;21086;-49
2022/08/17 05:11:25;;;;;;;10.82;6.05;;;;;;;21.15;66.70;99896.28;1700145;82;21054;-48
2022/08/17 05:13:53;;;;;;;11.93;5.92;;;;;;;21.23;66.55;99901.11;1703309;83;21097;-48
2022/08/17 05:16:20;;;;;;;11.88;6.12;;;;;;;21.29;66.09;99905.13;1692793;84;21078;-48
2022/08/17 05:18:47;;;;;;;8.53;6.28;;;;;;;21.38;66.03;99902.26;1675572;84;21315;-49
2022/08/17 05:21:14;;;;;;;15.85;6.85;;;;;;;21.40;66.05;99902.87;1677515;84;21550;-48
2022/08/17 05:23:41;;;;;;;12.18;6.70;;;;;;;21.36;65.88;99908.34;1723416;82;21000;-48
2022/08/17 05:26:09;;;;;;;11.35;6.30;;;;;;;21.31;66.00;99906.27;1737490;81;21082;-48
2022/08/17 05:28:35;;;;;;;7.33;5.78;;;;;;;21.34;66.21;99912.55;1739129;80;21066;-48
2022/08/17 05:31:02;;;;;;;13.22;6.10;;;;;;;21.45;66.43;99911.95;1738388;81;21795;-48
2022/08/17 05:33:32;;;;;;;10.40;6.35;;;;;;;21.57;66.28;99916.20;1740154;81;21030;-48
2022/08/17 05:36:00;;;;;;;10.53;6.22;;;;;;;21.65;65.47;99913.32;1739905;81;21063;-48
2022/08/17 05:38:29;;;;;;;9.75;6.58;;;;;;;21.64;65.29;99918.35;1738596;80;21067;-48
2022/08/17 05:40:56;;;;;;;10.32;6.47;;;;;;;21.63;65.68;99915.36;1739923;81;20996;-48
2022/08/17 05:43:31;;;;;;;9.33;6.05;;;;;;;21.70;65.58;99912.67;1732261;80;21145;-49
2022/08/17 05:46:24;;;;;;;9.88;6.25;;;;;;;21.76;65.54;99916.40;1699627;82;21086;-48
2022/08/17 05:48:57;;;;;;;10.32;6.25;;;;;;;21.82;65.17;99922.23;1742203;82;21047;-46
2022/08/17 05:51:34;;;;;;;13.13;6.58;;;;;;;21.91;65.29;99914.31;1698367;82;21043;-46
2022/08/17 05:54:31;;;;;;;12.82;6.45;;;;;;;21.99;64.74;99923.47;1724146;81;21074;-46
2022/08/17 05:57:32;;;;;;;9.43;6.92;;;;;;;22.06;64.08;99924.27;1700057;82;21247;-46
2022/08/17 06:00:19;;;;;;;9.23;6.87;;;;;;;22.11;63.94;99928.16;1699110;82;21082;-46
2022/08/17 06:03:30;;;;;;;9.95;7.85;;;;;;;22.16;63.70;99933.75;1661184;83;21063;-46
2022/08/17 06:06:36;;;;;;;15.45;6.85;;;;;;;22.19;63.94;99929.28;1741039;80;21031;-46
2022/08/17 06:09:31;;;;;;;9.83;6.87;;;;;;;22.27;63.71;99927.72;1741661;82;21475;-47
2022/08/17 06:12:23;;;;;;;13.50;6.90;;;;;;;22.40;63.54;99936.27;1735845;81;21795;-46
2022/08/17 06:15:22;;;;;;;10.65;8.00;;;;;;;22.52;63.24;99931.08;1734710;81;21046;-46
2022/08/17 06:17:47;;;;;;;10.13;7.90;;;;;;;22.57;62.84;99923.22;1704826;83;21106;-47
2022/08/17 06:20:14;;;;;;;11.28;7.80;;;;;;;22.56;62.51;99921.06;1701322;82;21059;-46
2022/08/17 06:22:48;;;;;;;11.15;7.95;;;;;;;22.54;62.58;99920.95;1742467;82;21108;-47
2022/08/17 06:25:33;;;;;;;12.68;7.20;;;;;;;22.57;62.74;99919.19;1700146;82;21778;-47
2022/08/17 06:28:07;;;;;;;10.28;6.67;;;;;;;22.66;62.71;99921.92;1702052;84;21011;-47
2022/08/17 06:30:45;;;;;;;9.85;7.50;;;;;;;22.79;62.81;99925.87;1701203;83;21575;-47
2022/08/17 06:33:17;;;;;;;9.58;7.12;;;;;;;22.90;62.61;99927.08;1707159;83;21047;-48
2022/08/17 06:36:01;;;;;;;8.88;7.42;;;;;;;23.03;62.14;99931.52;1701933;83;21027;-47
2022/08/17 06:38:43;;;;;;;10.75;7.50;;;;;;;23.12;62.26;99924.91;1705642;83;21141;-46
2022/08/17 06:41:42;;;;;;;10.70;7.40;;;;;;;23.22;61.85;99924.93;1703814;83;21266;-47
2022/08/17 06:44:20;;;;;;;11.97;8.23;;;;;;;23.30;61.75;99924.67;1708554;83;21049;-47
2022/08/17 06:46:55;;;;;;;9.63;6.75;;;;;;;23.37;61.53;99930.84;1699529;82;21058;-47
2022/08/17 06:49:50;;;;;;;13.10;7.27;;;;;;;23.46;61.53;99931.38;1705995;83;21055;-47
2022/08/17 06:52:26;;;;;;;11.60;7.15;;;;;;;23.55;61.47;99928.22;1706681;83;21115;-47
2022/08/17 06:55:05;;;;;;;11.88;7.40;;;;;;;23.64;60.90;99920.70;1707518;83;21125;-47
2022/08/17 06:57:35;;;;;;;11.10;7.45;;;;;;;23.67;61.04;99924.29;1702218;83;21016;-47
2022/08/17 07:00:11;;;;;;;12.82;7.47;;;;;;;23.74;60.93;99925.58;1701627;83;21062;-47
2022/08/17 07:03:09;;;;;;;10.75;7.60;;;;;;;23.83;60.92;99935.02;1700074;83;21075;-47
2022/08/17 07:05:51;;;;;;;11.63;7.10;;;;;;;23.91;60.64;99934.73;1706711;83;21139;-47
2022/08/17 07:08:48;;;;;;;10.23;6.95;;;;;;;23.96;60.82;99941.32;1708893;83;21089;-47
2022/08/17 07:11:18;;;;;;;;;;;;;;;24.04;60.31;99930.26;1708025;82;21042;-47
2022/08/17 07:14:07;;;;;;;10.03;6.87;;;;;;;24.13;59.97;99934.31;1703468;83;20208;-48
2022/08/17 07:16:44;;;;;;;10.23;7.05;;;;;;;24.20;59.97;99928.86;1704724;83;21327;-47
2022/08/17 07:19:10;;;;;;;10.78;7.17;;;;;;;24.27;59.98;99921.53;1700544;83;21157;-47
2022/08/17 07:22:16;;;;;;;11.10;8.05;;;;;;;24.36;59.93;99919.36;1707024;83;21059;-47
2022/08/17 07:24:56;;;;;;;9.25;7.47;;;;;;;24.43;59.44;99919.59;1706350;83;21105;-48
2022/08/17 07:27:40;;;;;;;13.30;7.80;;;;;;;24.51;59.39;99922.52;1705814;82;21105;-47
2022/08/17 07:30:15;;;;;;;9.93;7.45;;;;;;;24.58;59.61;99927.81;1681391;83;21049;-47
2022/08/17 07:32:58;;;;;;;14.98;7.50;;;;;;;24.66;59.98;99919.44;1706693;83;21203;-47
2022/08/17 07:35:38;;;;;;;9.68;6.65;;;;;;;24.78;59.95;99925.70;1696181;82;21019;-48
2022/08/17 07:38:15;;;;;;;10.55;7.10;;;;;;;24.93;59.77;99927.15;1705062;83;21103;-48
2022/08/17 07:41:00;;;;;;;11.38;7.37;;;;;;;25.05;59.26;99928.03;1703934;83;21087;-47
2022/08/17 07:43:40;;;;;;;9.75;7.25;;;;;;;25.11;58.32;99912.82;1703024;83;21568;-47
2022/08/17 07:49:16;;;;;;;10.38;7.83;;;;;;;25.19;59.03;99920.57;1702542;83;21692;-47
2022/08/17 07:51:49;;;;;;;11.05;6.97;;;;;;;25.25;58.68;99922.85;1705891;83;21101;-47
2022/08/17 07:54:21;;;;;;;11.20;7.45;;;;;;;25.30;58.99;99919.81;1704841;83;21565;-47
2022/08/17 07:57:04;;;;;;;12.00;7.10;;;;;;;25.34;58.18;99922.33;1702964;83;21642;-47
2022/08/17 07:59:35;;;;;;;11.10;6.28;;;;;;;25.32;58.09;99917.70;1701389;83;21139;-46
2022/08/17 08:02:39;;;;;;;8.93;6.87;;;;;;;25.35;57.71;99919.94;1703303;83;22816;-46
2022/08/17 08:05:26;;;;;;;9.18;7.60;;;;;;;25.44;57.17;99917.72;1702135;83;21123;-48
2022/08/17 08:08:03;;;;;;;12.23;7.70;;;;;;;25.52;56.59;99917.89;1706193;83;21121;-47
2022/08/17 08:10:42;;;;;;;10.48;7.55;;;;;;;25.51;56.20;99917.08;1703573;83;21027;-47
2022/08/17 08:13:23;;;;;;;9.25;7.22;;;;;;;25.48;56.63;99916.72;1708609;83;21478;-47
2022/08/17 08:15:55;;;;;;;9.73;6.67;;;;;;;25.50;57.10;99913.27;1706958;83;21106;-47
2022/08/17 08:18:29;;;;;;;12.13;7.40;;;;;;;25.53;57.14;99916.31;1699639;83;21123;-46
2022/08/17 08:21:10;;;;;;;14.75;7.33;;;;;;;25.58;57.39;99908.88;1700099;83;21078;-47
2022/08/17 08:24:09;;;;;;;14.90;7.87;;;;;;;25.60;56.71;99905.42;1738336;81;21054;-46
2022/08/17 08:26:49;;;;;;;11.05;7.25;;;;;;;25.59;56.38;99903.27;1734551;81;21127;-47
2022/08/17 08:29:29;;;;;;;10.00;7.05;;;;;;;25.58;55.41;99903.50;1745643;81;21099;-47
2022/08/17 08:32:23;;;;;;;12.53;8.10;;;;;;;25.61;55.53;99904.38;1673136;85;21129;-47
2022/08/17 08:35:16;;;;;;;12.98;7.42;;;;;;;25.69;55.85;99895.95;1744810;81;21682;-45
2022/08/17 08:38:11;;;;;;;10.13;7.37;;;;;;;25.78;55.16;99899.11;1735658;81;21536;-46
2022/08/17 08:40:44;;;;;;;12.75;7.25;;;;;;;25.85;55.20;99903.03;1740544;81;22238;-47
2022/08/17 08:43:27;;;;;;;9.63;6.97;;;;;;;25.88;55.41;99900.68;1746952;81;21097;-49
2022/08/17 08:46:21;;;;;;;12.90;8.00;;;;;;;25.92;54.93;99903.72;1727630;82;21144;-47
2022/08/17 08:49:02;;;;;;;10.88;7.55;;;;;;;25.92;54.79;99902.37;1588078;85;21066;-47
2022/08/17 08:51:54;;;;;;;9.73;7.47;;;;;;;25.95;55.31;99901.94;1717336;81;21056;-46
2022/08/17 08:54:38;;;;;;;15.03;8.75;;;;;;;26.01;55.33;99909.59;1667361;85;21140;-46
2022/08/17 08:57:46;;;;;;;12.43;8.03;;;;;;;26.07;54.85;99903.27;1646416;85;21073;-46
2022/08/17 09:00:20;;;;;;;12.82;8.88;;;;;;;26.10;54.07;99904.95;1738643;81;21107;-47
2022/08/17 09:03:16;;;;;;;11.65;7.45;;;;;;;26.14;53.83;99899.40;1731197;81;21351;-47
2022/08/17 09:06:15;;;;;;;12.13;8.05;;;;;;;26.17;53.88;99898.62;1674226;85;21112;-47
2022/08/17 09:08:54;;;;;;;13.62;7.95;;;;;;;26.31;54.43;99902.71;1667313;85;23342;-47
2022/08/17 09:11:34;;;;;;;17.75;8.68;;;;;;;26.48;53.90;99902.23;1671581;84;21107;-47
2022/08/17 09:14:18;;;;;;;10.58;8.08;;;;;;;26.67;53.89;99903.43;1723801;81;21073;-47
2022/08/17 09:17:02;;;;;;;9.95;8.10;;;;;;;26.80;53.53;99907.19;1740041;81;21036;-47
2022/08/17 09:19:40;;;;;;;12.43;7.40;;;;;;;26.90;52.95;99900.33;1741987;81;21537;-47
2022/08/17 09:22:30;;;;;;;13.00;7.92;;;;;;;27.02;53.37;99901.91;1735386;80;21133;-47
2022/08/17 09:26:24;;;;;;;13.68;9.20;;;;;;;27.32;53.07;99904.04;1806418;77;22604;-47
2022/08/17 09:29:00;;;;;;;14.53;9.75;;;;;;;27.49;52.51;99906.73;1772541;80;21142;-47
2022/08/17 09:31:45;;;;;;;16.00;9.40;;;;;;;27.66;52.62;99906.21;1775834;78;21128;-47
2022/08/17 09:34:15;;;;;;;16.40;9.40;;;;;;;27.75;51.93;99897.14;1750597;80;20928;-48
2022/08/17 09:36:49;;;;;;;14.53;9.40;;;;;;;27.85;51.82;99891.06;1774511;78;21008;-48
2022/08/17 09:39:42;;;;;;;16.40;10.38;;;;;;;27.92;51.58;99892.53;1782939;80;21050;-48
2022/08/17 09:42:38;;;;;;;13.70;8.98;;;;;;;27.98;51.52;99890.73;1777939;78;20966;-47
2022/08/17 09:45:43;;;;;;;14.65;9.90;;;;;;;28.07;51.54;99891.11;1759192;80;21220;-47
2022/08/17 09:48:30;;;;;;;13.48;9.00;;;;;;;28.13;51.93;99889.58;1757711;79;21046;-46
2022/08/17 09:51:13;;;;;;;14.13;10.15;;;;;;;28.21;50.96;99884.79;1771552;80;21707;-47
2022/08/17 09:53:40;;;;;;;12.30;8.95;;;;;;;28.22;50.59;99881.84;1789613;78;21109;-48
2022/08/17 09:56:30;;;;;;;14.35;8.93;;;;;;;28.19;50.79;99882.34;1786438;80;21153;-48
2022/08/17 09:59:23;;;;;;;13.50;8.75;;;;;;;28.20;51.97;99879.92;1776681;80;21282;-48
2022/08/17 10:02:21;;;;;;;14.58;9.13;;;;;;;28.28;52.04;99882.19;1774034;78;21129;-46
2022/08/17 10:05:08;;;;;;;15.70;9.10;;;;;;;28.34;51.24;99879.84;1771068;80;21106;-47
2022/08/17 10:08:11;;;;;;;16.40;9.50;;;;;;;28.32;50.48;99877.09;1775767;79;21540;-47
2022/08/17 10:10:58;;;;;;;12.53;9.83;;;;;;;28.33;51.08;99870.08;1777853;78;21069;-47
2022/08/17 10:13:55;;;;;;;15.85;10.00;;;;;;;28.26;50.74;99865.41;1756395;78;21199;-47
2022/08/17 10:16:37;;;;;;;16.45;10.08;;;;;;;28.19;50.77;99869.36;1770039;80;21044;-48
2022/08/17 10:19:23;;;;;;;12.03;9.75;;;;;;;28.12;50.70;99869.55;1774120;80;21024;-48
2022/08/17 10:27:50;;;;;;;20.30;10.68;;;;;;;28.26;51.15;99874.87;1767638;79;21571;-48
2022/08/17 10:30:24;;;;;;;15.80;10.05;;;;;;;28.33;50.63;99875.48;1693463;83;21071;-47
2022/08/17 10:32:58;;;;;;;15.28;9.68;;;;;;;28.39;50.39;99873.64;1764661;79;21048;-47
2022/08/17 10:35:49;;;;;;;14.10;9.88;;;;;;;28.46;50.92;99871.58;1769139;80;21027;-50
2022/08/17 10:38:48;;;;;;;12.82;9.38;;;;;;;28.54;50.70;99877.87;1773249;79;21636;-48
2022/08/17 10:41:24;;;;;;;15.80;9.85;;;;;;;28.68;49.88;99875.62;1766719;80;21150;-48
2022/08/17 10:44:02;;;;;;;;;;;;;;;28.77;49.55;99871.92;1777899;79;21047;-48
2022/08/17 10:47:16;;;;;;;14.03;9.78;;;;;;;28.81;49.35;99872.22;1769046;80;20242;-48
2022/08/17 10:49:48;;;;;;;18.17;10.20;;;;;;;28.86;49.77;99870.91;1780892;80;21090;-48
2022/08/17 10:52:32;;;;;;;19.20;10.32;;;;;;;28.90;49.12;99870.70;1775051;80;21095;-48
2022/08/17 10:55:14;;;;;;;15.78;10.63;;;;;;;28.82;48.42;99865.75;1779884;80;21111;-46
2022/08/17 10:57:48;;;;;;;14.87;10.28;;;;;;;28.73;48.68;99862.66;1755217;80;21050;-46
2022/08/17 11:00:41;;;;;;;17.95;10.32;;;;;;;28.70;49.68;99865.36;1768069;79;21125;-47
2022/08/17 11:03:18;;;;;;;16.40;9.60;;;;;;;28.73;49.03;99859.95;1758465;80;21043;-47
2022/08/17 11:06:05;;;;;;;16.00;9.80;;;;;;;28.77;49.00;99858.93;1757767;80;21070;-48
2022/08/17 11:08:56;;;;;;;16.62;8.93;;;;;;;28.83;48.41;99859.23;1780024;79;22004;-47
2022/08/17 11:11:51;;;;;;;14.55;9.18;;;;;;;28.84;48.25;99863.59;1778998;80;21046;-48
2022/08/17 11:14:35;;;;;;;13.43;9.28;;;;;;;28.86;47.22;99851.41;1760415;80;21059;-48
2022/08/17 11:18:00;;;;;;;15.93;9.15;;;;;;;28.88;47.61;99854.70;1767441;79;21050;-48
2022/08/17 11:20:58;;;;;;;15.75;9.68;;;;;;;28.92;48.81;99850.94;1749923;82;21019;-47
2022/08/17 11:23:53;;;;;;;14.40;9.23;;;;;;;29.03;47.73;99847.77;1756174;80;22159;-48
2022/08/17 11:26:30;;;;;;;11.90;8.78;;;;;;;29.05;48.11;99851.87;1779069;80;21121;-48
2022/08/17 11:29:02;;;;;;;13.85;9.10;;;;;;;29.16;48.25;99850.59;1760638;80;21492;-48
2022/08/17 11:31:42;;;;;;;13.10;8.03;;;;;;;29.30;48.37;99846.38;1759364;79;21070;-48
2022/08/17 11:34:25;;;;;;;13.75;8.73;;;;;;;29.45;48.24;99843.80;1776948;79;21101;-48
2022/08/17 11:37:12;;;;;;;15.68;8.95;;;;;;;29.58;47.41;99841.14;1762771;79;21747;-48
2022/08/17 11:39:45;;;;;;;12.15;8.90;;;;;;;29.68;47.21;99828.74;1730871;80;21076;-48
2022/08/17 11:42:43;;;;;;;13.65;9.30;;;;;;;29.76;46.54;99825.53;1768840;79;21108;-48
2022/08/17 11:45:32;;;;;;;11.93;8.28;;;;;;;29.85;45.71;99825.32;1767452;80;21092;-48
2022/08/17 11:53:46;;;;;;;10.53;8.75;;;;;;;30.25;46.82;99825.20;1771658;80;21114;-48
2022/08/17 11:56:40;;;;;;;14.90;9.00;;;;;;;30.37;45.13;99819.01;1767055;80;21074;-49
2022/08/17 11:59:32;;;;;;;17.85;9.35;;;;;;;30.41;45.92;99816.56;1767579;80;21082;-48
2022/08/17 12:02:00;;;;;;;12.68;8.43;;;;;;;30.52;45.44;99819.58;1767255;80;21062;-48
2022/08/17 12:04:30;;;;;;;14.87;8.78;;;;;;;30.61;44.99;99825.84;1767710;80;21065;-49
2022/08/17 12:07:12;;;;;;;11.28;8.45;;;;;;;30.67;45.07;99817.43;1765723;80;21123;-48
2022/08/17 12:09:42;;;;;;;18.95;8.38;;;;;;;30.72;45.06;99820.15;1699869;82;21008;-48
2022/08/17 12:12:13;;;;;;;10.80;8.18;;;;;;;30.81;44.45;99811.47;1775528;79;21564;-48
2022/08/17 12:14:50;;;;;;;10.68;9.03;;;;;;;30.82;44.39;99819.90;1778250;80;21074;-50
2022/08/17 12:17:22;;;;;;;15.88;8.90;;;;;;;30.83;44.48;99814.17;1781567;79;21094;-48
2022/08/17 12:19:49;;;;;;;11.50;8.55;;;;;;;30.84;44.42;99815.00;1785033;79;21007;-48
2022/08/17 12:22:31;;;;;;;11.70;8.75;;;;;;;30.85;44.24;99816.09;1749186;80;21039;-48
2022/08/17 12:25:12;;;;;;;15.20;8.83;;;;;;;30.88;44.21;99810.13;1759851;79;20984;-48
2022/08/17 12:27:45;;;;;;;10.85;7.85;;;;;;;30.91;43.76;99805.48;1782836;79;20991;-48
2022/08/17 12:30:15;;;;;;;14.00;7.92;;;;;;;30.88;43.73;99801.97;1768343;80;21208;-48
2022/08/17 12:32:44;;;;;;;13.10;8.65;;;;;;;30.86;43.69;99806.03;1765865;80;20979;-49
2022/08/17 12:35:31;;;;;;;14.58;9.10;;;;;;;30.88;43.63;99806.05;1772907;80;21039;-48
2022/08/17 12:37:58;;;;;;;13.00;7.85;;;;;;;30.95;43.64;99803.61;1789793;79;22211;-48
2022/08/17 12:40:30;;;;;;;11.50;8.03;;;;;;;30.99;43.58;99808.78;1718365;82;21613;-48
2022/08/17 12:43:00;;;;;;;14.45;8.83;;;;;;;31.05;43.95;99797.64;1769927;80;21077;-48